createdAt,value
2022-08-04T00:03:03.689Z,22.40
2022-08-04T00:05:59.375Z,22.30
2022-08-04T00:08:50.086Z,22.20
2022-08-04T00:11:44.902Z,22.00
2022-08-04T00:14:35.881Z,22.00
2022-08-04T00:17:26.265Z,21.90
2022-08-04T00:20:17.047Z,21.80
2022-08-04T00:23:03.830Z,21.80
2022-08-04T00:25:50.061Z,21.70
2022-08-04T00:28:38.416Z,21.60
2022-08-04T00:31:53.733Z,21.50
2022-08-04T00:34:34.621Z,21.40
2022-08-04T00:37:25.451Z,21.40
2022-08-04T00:40:55.761Z,21.40
2022-08-04T00:44:04.713Z,21.50
2022-08-04T00:47:02.470Z,21.40
2022-08-04T00:50:01.878Z,21.40
2022-08-04T00:52:50.809Z,21.40
2022-08-04T00:56:02.625Z,21.40
2022-08-04T00:58:54.803Z,21.40
2022-08-04T01:02:00.516Z,21.20
2022-08-04T01:05:05.932Z,21.10
2022-08-04T01:08:25.550Z,21.00
2022-08-04T01:11:56.858Z,20.90
2022-08-04T01:15:07.665Z,20.90
2022-08-04T01:18:08.019Z,20.80
2022-08-04T01:21:00.128Z,20.70
2022-08-04T01:24:36.761Z,20.60
2022-08-04T01:27:35.683Z,20.60
2022-08-04T01:30:27.381Z,20.50
2022-08-04T01:33:15.037Z,20.40
2022-08-04T01:36:06.911Z,20.40
2022-08-04T01:38:54.430Z,20.40
2022-08-04T01:41:40.767Z,20.30
2022-08-04T01:44:50.029Z,20.20
2022-08-04T01:47:40.360Z,20.20
2022-08-04T01:50:28.314Z,20.30
2022-08-04T01:53:14.442Z,20.20
2022-08-04T01:56:02.761Z,20.20
2022-08-04T01:58:49.044Z,20.20
2022-08-04T02:01:37.583Z,20.20
2022-08-04T02:04:23.990Z,20.10
2022-08-04T02:07:13.770Z,20.10
2022-08-04T02:10:07.048Z,20.10
2022-08-04T02:13:02.487Z,20.00
2022-08-04T02:16:05.162Z,19.90
2022-08-04T02:19:06.718Z,19.70
2022-08-04T02:22:09.553Z,19.60
2022-08-04T02:25:08.893Z,19.50
2022-08-04T02:28:20.755Z,19.40
2022-08-04T02:31:25.509Z,19.40
2022-08-04T02:34:26.786Z,19.50
2022-08-04T02:37:15.346Z,19.60
2022-08-04T02:40:04.388Z,19.60
2022-08-04T02:42:51.058Z,19.40
2022-08-04T02:45:40.998Z,19.30
2022-08-04T02:48:31.310Z,19.20
2022-08-04T02:51:28.050Z,19.30
2022-08-04T02:54:22.318Z,19.30
2022-08-04T02:57:21.902Z,19.40
2022-08-04T03:00:15.499Z,19.40
2022-08-04T03:03:13.674Z,19.40
2022-08-04T03:06:06.383Z,19.50
2022-08-04T03:09:13.169Z,19.40
2022-08-04T03:12:31.736Z,19.20
2022-08-04T03:15:30.661Z,19.10
2022-08-04T03:18:54.575Z,19.10
2022-08-04T03:21:53.070Z,19.20
2022-08-04T03:25:10.874Z,19.20
2022-08-04T03:27:59.812Z,19.10
2022-08-04T03:31:00.800Z,19.10
2022-08-04T03:34:08.964Z,19.10
2022-08-04T03:37:10.330Z,19.10
2022-08-04T03:40:37.962Z,19.20
2022-08-04T03:43:59.212Z,19.20
2022-08-04T03:46:57.814Z,19.20
2022-08-04T03:50:08.636Z,19.10
2022-08-04T03:53:13.027Z,19.10
2022-08-04T03:56:05.322Z,19.10
2022-08-04T03:59:10.260Z,19.00
2022-08-04T04:02:25.225Z,18.90
2022-08-04T04:05:31.258Z,18.90
2022-08-04T04:08:26.478Z,18.90
2022-08-04T04:11:30.498Z,18.90
2022-08-04T04:14:53.853Z,18.90
2022-08-04T04:17:54.228Z,18.90
2022-08-04T04:21:18.846Z,18.90
2022-08-04T04:24:20.940Z,19.00
2022-08-04T04:27:40.580Z,19.00
2022-08-04T04:31:06.047Z,19.00
2022-08-04T04:34:15.798Z,19.00
2022-08-04T04:37:07.764Z,18.90
2022-08-04T04:40:24.401Z,18.80
2022-08-04T04:43:50.994Z,18.90
2022-08-04T04:47:05.438Z,19.00
2022-08-04T04:49:59.506Z,19.10
2022-08-04T04:52:54.946Z,19.10
2022-08-04T04:55:50.165Z,19.20
2022-08-04T04:58:38.485Z,19.20
2022-08-04T05:01:46.162Z,19.20
2022-08-04T05:04:55.662Z,19.20
2022-08-04T05:08:45.491Z,19.30
2022-08-04T05:14:32.673Z,19.40
2022-08-04T05:15:16.590Z,19.40
2022-08-04T05:18:06.036Z,19.40
2022-08-04T05:20:58.399Z,19.50
2022-08-04T05:23:49.536Z,19.50
2022-08-04T05:26:43.954Z,19.60
2022-08-04T05:29:41.178Z,19.70
2022-08-04T05:32:32.749Z,19.80
2022-08-04T05:35:47.767Z,19.90
2022-08-04T05:38:43.817Z,20.00
2022-08-04T05:41:41.986Z,20.10
2022-08-04T05:44:34.023Z,20.20
2022-08-04T05:47:23.726Z,20.30
2022-08-04T05:50:10.426Z,20.30
2022-08-04T05:52:59.953Z,20.40
2022-08-04T05:55:58.563Z,20.50
2022-08-04T05:58:47.083Z,20.60
2022-08-04T06:01:55.326Z,20.70
2022-08-04T06:04:43.572Z,20.80
2022-08-04T06:07:29.727Z,21.00
2022-08-04T06:10:17.003Z,21.10
2022-08-04T06:13:08.693Z,21.20
2022-08-04T06:15:56.391Z,21.30
2022-08-04T06:19:58.983Z,21.40
2022-08-04T06:21:54.702Z,21.50
2022-08-04T06:24:45.142Z,21.60
2022-08-04T06:27:31.791Z,21.70
2022-08-04T06:30:20.147Z,21.80
2022-08-04T06:33:24.100Z,22.00
2022-08-04T06:36:12.238Z,22.10
2022-08-04T06:39:00.316Z,22.20
2022-08-04T06:42:01.887Z,22.30
2022-08-04T06:44:59.103Z,22.40
2022-08-04T06:47:46.116Z,22.50
2022-08-04T06:51:27.839Z,22.60
2022-08-04T06:53:43.688Z,22.70
2022-08-04T06:56:33.860Z,22.90
2022-08-04T06:59:22.299Z,22.90
2022-08-04T07:02:14.312Z,23.00
2022-08-04T07:05:04.508Z,23.20
2022-08-04T07:07:57.440Z,23.30
2022-08-04T07:10:46.341Z,23.50
2022-08-04T07:13:32.827Z,23.60
2022-08-04T07:16:20.661Z,23.80
2022-08-04T07:19:19.099Z,24.00
2022-08-04T07:22:25.021Z,24.20
2022-08-04T07:25:13.211Z,24.40
2022-08-04T07:27:59.701Z,24.50
2022-08-04T07:30:49.020Z,24.60
2022-08-04T07:33:35.169Z,24.70
2022-08-04T07:36:21.315Z,24.80
2022-08-04T07:39:22.007Z,24.80
2022-08-04T07:42:19.053Z,25.00
2022-08-04T07:45:06.323Z,25.00
2022-08-04T07:48:04.666Z,25.20
2022-08-04T07:50:52.442Z,25.20
2022-08-04T07:53:52.889Z,25.30
2022-08-04T07:56:43.420Z,25.40
2022-08-04T07:59:29.398Z,25.50
2022-08-04T08:02:16.792Z,25.60
2022-08-04T08:05:04.121Z,25.60
2022-08-04T08:07:54.338Z,25.80
2022-08-04T08:10:46.895Z,25.90
2022-08-04T08:13:34.533Z,26.00
2022-08-04T08:16:21.203Z,26.10
2022-08-04T08:19:12.418Z,26.30
2022-08-04T08:22:00.879Z,26.40
2022-08-04T08:24:47.854Z,26.50
2022-08-04T08:27:35.026Z,26.60
2022-08-04T08:30:22.351Z,26.70
2022-08-04T08:33:13.798Z,26.90
2022-08-04T08:36:33.816Z,27.00
2022-08-04T08:39:34.941Z,27.20
2022-08-04T08:42:33.808Z,27.40
2022-08-04T08:45:57.473Z,27.50
2022-08-04T08:50:00.361Z,27.60
2022-08-04T08:53:01.137Z,27.70
2022-08-04T08:56:43.370Z,27.70
2022-08-04T08:59:47.456Z,27.80
2022-08-04T09:03:03.915Z,27.90
2022-08-04T09:05:56.863Z,27.90
2022-08-04T09:09:06.542Z,28.00
2022-08-04T09:11:55.614Z,28.20
2022-08-04T09:15:12.834Z,28.30
2022-08-04T09:18:14.943Z,28.50
2022-08-04T09:21:06.841Z,28.60
2022-08-04T09:24:35.655Z,28.80
2022-08-04T09:27:40.799Z,28.90
2022-08-04T09:30:45.296Z,29.20
2022-08-04T09:33:54.831Z,29.40
2022-08-04T09:36:51.492Z,29.60
2022-08-04T09:39:52.056Z,29.80
2022-08-04T09:43:06.654Z,29.90
2022-08-04T09:46:34.407Z,30.10
2022-08-04T09:49:29.751Z,30.50
2022-08-04T09:52:34.740Z,30.60
2022-08-04T09:55:33.079Z,30.90
2022-08-04T09:58:47.606Z,31.10
2022-08-04T10:01:36.559Z,31.40
2022-08-04T10:04:25.902Z,31.60
2022-08-04T10:07:40.118Z,31.80
2022-08-04T10:10:37.201Z,32.00
2022-08-04T10:13:29.425Z,32.10
2022-08-04T10:16:27.397Z,32.30
2022-08-04T10:19:32.515Z,32.40
2022-08-04T10:23:09.343Z,32.50
2022-08-04T10:26:06.195Z,32.70
2022-08-04T10:29:00.682Z,32.90
2022-08-04T10:32:04.600Z,33.00
2022-08-04T10:34:56.539Z,33.00
2022-08-04T10:38:01.228Z,33.10
2022-08-04T10:40:56.811Z,33.10
2022-08-04T10:44:24.661Z,33.20
2022-08-04T10:47:17.884Z,33.10
2022-08-04T10:50:05.807Z,32.90
2022-08-04T10:53:00.241Z,32.90
2022-08-04T10:56:06.608Z,33.20
2022-08-04T10:58:59.931Z,33.30
2022-08-04T11:02:00.794Z,33.50
2022-08-04T11:05:01.667Z,33.70
2022-08-04T11:07:52.447Z,33.70
2022-08-04T11:10:58.428Z,33.80
2022-08-04T11:13:48.362Z,33.90
2022-08-04T11:16:53.300Z,33.80
2022-08-04T11:19:51.485Z,33.90
2022-08-04T11:22:48.111Z,34.00
2022-08-04T11:25:42.374Z,34.00
2022-08-04T11:29:04.087Z,34.10
2022-08-04T11:31:52.160Z,34.10
2022-08-04T11:34:43.949Z,34.10
2022-08-04T11:37:50.148Z,34.00
2022-08-04T11:40:55.806Z,33.70
2022-08-04T11:44:01.677Z,33.50
2022-08-04T11:46:53.289Z,33.40
2022-08-04T11:49:56.585Z,33.20
2022-08-04T11:52:46.033Z,33.20
2022-08-04T11:56:06.874Z,33.20
2022-08-04T11:58:39.858Z,33.30
2022-08-04T12:01:33.350Z,33.60
2022-08-04T12:04:43.287Z,33.70
2022-08-04T12:07:41.758Z,33.80
2022-08-04T12:10:56.183Z,33.90
2022-08-04T12:14:06.879Z,33.90
2022-08-04T12:17:03.949Z,33.70
2022-08-04T12:20:04.604Z,33.70
2022-08-04T12:23:08.041Z,33.80
2022-08-04T12:26:00.324Z,33.90
2022-08-04T12:29:09.676Z,34.00
2022-08-04T12:32:11.703Z,34.00
2022-08-04T12:35:18.822Z,34.10
2022-08-04T12:38:11.902Z,34.10
2022-08-04T12:41:03.730Z,34.30
2022-08-04T12:43:50.645Z,34.30
2022-08-04T12:46:37.984Z,34.40
2022-08-04T12:49:25.412Z,34.50
2022-08-04T12:52:14.929Z,34.50
2022-08-04T12:55:02.687Z,34.40
2022-08-04T12:57:50.824Z,34.40
2022-08-04T13:00:41.671Z,34.30
2022-08-04T13:03:37.556Z,34.50
2022-08-04T13:06:35.425Z,34.60
2022-08-04T13:09:26.373Z,34.70
2022-08-04T13:12:32.560Z,34.90
2022-08-04T13:15:23.058Z,35.10
2022-08-04T13:18:14.715Z,35.30
2022-08-04T13:21:21.227Z,35.30
2022-08-04T13:24:22.839Z,35.40
2022-08-04T13:27:19.412Z,35.40
2022-08-04T13:30:06.879Z,35.50
2022-08-04T13:33:01.456Z,35.50
2022-08-04T13:35:55.806Z,35.30
2022-08-04T13:39:09.089Z,35.30
2022-08-04T13:41:59.174Z,35.40
2022-08-04T13:44:52.961Z,35.40
2022-08-04T13:47:40.975Z,35.40
2022-08-04T13:50:30.317Z,35.30
2022-08-04T13:53:18.902Z,35.20
2022-08-04T13:56:12.623Z,35.10
2022-08-04T13:59:02.929Z,35.10
2022-08-04T14:02:02.928Z,35.10
2022-08-04T14:04:57.170Z,35.00
2022-08-04T14:07:49.152Z,34.80
2022-08-04T14:10:36.941Z,34.50
2022-08-04T14:13:41.865Z,34.30
2022-08-04T14:16:28.454Z,34.20
2022-08-04T14:19:14.435Z,34.10
2022-08-04T14:22:00.474Z,34.00
2022-08-04T14:25:15.876Z,33.90
2022-08-04T14:28:02.882Z,34.00
2022-08-04T14:30:48.875Z,33.90
2022-08-04T14:34:01.281Z,33.70
2022-08-04T14:37:13.266Z,33.60
2022-08-04T14:40:17.255Z,33.70
2022-08-04T14:43:08.915Z,33.80
2022-08-04T14:46:05.263Z,33.90
2022-08-04T14:49:12.170Z,33.90
2022-08-04T14:52:01.702Z,34.00
2022-08-04T14:54:48.139Z,33.80
2022-08-04T14:58:34.354Z,33.80
2022-08-04T15:00:43.680Z,33.70
2022-08-04T15:03:30.439Z,33.80
2022-08-04T15:06:21.580Z,33.80
2022-08-04T15:09:10.122Z,33.80
2022-08-04T15:11:56.379Z,33.80
2022-08-04T15:14:44.664Z,33.90
2022-08-04T15:17:31.783Z,33.90
2022-08-04T15:20:18.215Z,34.00
2022-08-04T15:23:10.442Z,33.90
2022-08-04T15:26:00.283Z,33.80
2022-08-04T15:28:54.621Z,33.80
2022-08-04T15:32:05.632Z,33.70
2022-08-04T15:34:51.822Z,33.70
2022-08-04T15:38:02.263Z,33.70
2022-08-04T15:41:08.065Z,33.70
2022-08-04T15:44:00.473Z,33.60
2022-08-04T15:46:46.365Z,33.60
2022-08-04T15:49:33.717Z,33.60
2022-08-04T15:52:19.991Z,33.60
2022-08-04T15:55:45.137Z,33.60
2022-08-04T15:58:48.634Z,33.60
2022-08-04T16:01:34.898Z,33.50
2022-08-04T16:04:22.222Z,33.50
2022-08-04T16:07:08.164Z,33.40
2022-08-04T16:09:54.258Z,33.30
2022-08-04T16:13:06.494Z,33.20
2022-08-04T16:15:53.815Z,33.20
2022-08-04T16:18:43.572Z,33.10
2022-08-04T16:21:32.920Z,33.10
2022-08-04T16:24:36.110Z,33.10
2022-08-04T16:27:39.375Z,33.10
2022-08-04T16:30:27.267Z,33.00
2022-08-04T16:33:13.546Z,33.00
2022-08-04T16:36:08.087Z,32.90
2022-08-04T16:39:04.725Z,32.90
2022-08-04T16:41:50.913Z,32.80
2022-08-04T16:44:52.823Z,32.80
2022-08-04T16:47:48.561Z,32.80
2022-08-04T16:50:47.532Z,32.80
2022-08-04T16:53:53.205Z,32.80
2022-08-04T16:56:46.896Z,32.80
2022-08-04T16:59:33.378Z,32.70
2022-08-04T17:02:25.321Z,32.70
2022-08-04T17:05:38.009Z,32.70
2022-08-04T17:08:30.121Z,32.70
2022-08-04T17:11:17.006Z,32.60
2022-08-04T17:14:05.863Z,32.50
2022-08-04T17:16:53.803Z,32.40
2022-08-04T17:19:41.672Z,32.40
2022-08-04T17:22:27.763Z,32.40
2022-08-04T17:25:13.913Z,32.40
2022-08-04T17:28:08.682Z,32.40
2022-08-04T17:31:10.140Z,32.40
2022-08-04T17:33:58.808Z,32.40
2022-08-04T17:36:45.111Z,32.30
2022-08-04T17:42:41.634Z,32.00
2022-08-04T17:48:41.403Z,31.90
2022-08-04T17:52:05.579Z,32.00
2022-08-04T17:55:02.879Z,31.90
2022-08-04T17:57:52.251Z,31.90
2022-08-04T18:00:38.929Z,31.90
2022-08-04T18:03:30.045Z,31.90
2022-08-04T18:06:16.747Z,31.80
2022-08-04T18:12:14.804Z,31.70
2022-08-04T18:15:02.345Z,31.60
2022-08-04T18:21:02.928Z,31.30
2022-08-04T18:23:51.309Z,31.20
2022-08-04T18:26:38.426Z,31.00
2022-08-04T18:29:31.646Z,30.90
2022-08-04T18:32:18.487Z,30.80
2022-08-04T18:35:07.570Z,30.70
2022-08-04T18:38:06.034Z,30.60
2022-08-04T18:40:57.990Z,30.50
2022-08-04T18:43:44.914Z,30.30
2022-08-04T18:46:52.661Z,30.20
2022-08-04T18:51:00.633Z,30.10
2022-08-04T18:52:48.474Z,30.00
2022-08-04T18:55:56.489Z,29.90
2022-08-04T18:58:45.319Z,29.80
2022-08-04T19:02:13.303Z,29.70
2022-08-04T19:04:39.114Z,29.60
2022-08-04T19:07:29.972Z,29.50
2022-08-04T19:10:33.590Z,29.40
2022-08-04T19:13:25.389Z,29.30
2022-08-04T19:16:22.093Z,29.20
2022-08-04T19:19:08.261Z,29.20
2022-08-04T19:21:59.801Z,29.10
2022-08-04T19:24:48.971Z,29.00
2022-08-04T19:27:38.822Z,29.00
2022-08-04T19:30:25.990Z,28.90
2022-08-04T19:33:12.386Z,28.90
2022-08-04T19:35:58.323Z,28.90
2022-08-04T19:38:45.083Z,28.80
2022-08-04T19:41:33.838Z,28.80
2022-08-04T19:44:44.517Z,28.80
2022-08-04T19:48:17.554Z,28.70
2022-08-04T19:50:37.557Z,28.60
2022-08-04T19:53:37.064Z,28.50
2022-08-04T19:56:25.675Z,28.40
2022-08-04T19:59:12.279Z,28.40
2022-08-04T20:01:58.915Z,28.30
2022-08-04T20:04:46.863Z,28.30
2022-08-04T20:07:33.988Z,28.20
2022-08-04T20:10:23.868Z,28.20
2022-08-04T20:13:10.520Z,28.00
2022-08-04T20:15:58.241Z,27.90
2022-08-04T20:18:55.663Z,27.80
2022-08-04T20:21:55.176Z,27.80
2022-08-04T20:24:50.375Z,27.70
2022-08-04T20:28:00.125Z,27.60
2022-08-04T20:30:47.614Z,27.60
2022-08-04T20:33:35.086Z,27.50
2022-08-04T20:36:23.281Z,27.50
2022-08-04T20:39:09.623Z,27.50
2022-08-04T20:41:55.908Z,27.40
2022-08-04T20:44:46.422Z,27.40
2022-08-04T20:47:35.693Z,27.40
2022-08-04T20:50:30.288Z,27.40
2022-08-04T20:53:17.356Z,27.30
2022-08-04T20:56:04.086Z,27.30
2022-08-04T20:58:52.598Z,27.20
2022-08-04T21:01:38.722Z,27.30
2022-08-04T21:04:45.275Z,27.20
2022-08-04T21:07:36.372Z,27.20
2022-08-04T21:10:28.083Z,27.20
2022-08-04T21:13:14.231Z,27.10
2022-08-04T21:16:00.440Z,27.10
2022-08-04T21:18:50.555Z,27.10
2022-08-04T21:21:38.069Z,27.00
2022-08-04T21:24:26.032Z,27.00
2022-08-04T21:27:12.630Z,26.90
2022-08-04T21:30:00.251Z,26.90
2022-08-04T21:32:46.334Z,26.80
2022-08-04T21:35:37.701Z,26.70
2022-08-04T21:38:28.174Z,26.60
2022-08-04T21:41:22.020Z,26.60
2022-08-04T21:44:12.979Z,26.50
2022-08-04T21:46:59.087Z,26.40
2022-08-04T21:49:56.363Z,26.40
2022-08-04T21:52:43.615Z,26.30
2022-08-04T21:56:04.976Z,26.30
2022-08-04T21:58:38.593Z,26.20
2022-08-04T22:01:50.287Z,26.10
2022-08-04T22:04:37.682Z,26.00
2022-08-04T22:07:23.966Z,26.00
2022-08-04T22:10:32.622Z,25.90
2022-08-04T22:13:22.396Z,25.70
2022-08-04T22:16:09.413Z,25.60
2022-08-04T22:18:57.710Z,25.50
2022-08-04T22:21:46.612Z,25.50
2022-08-04T22:24:33.019Z,25.40
2022-08-04T22:27:39.098Z,25.30
2022-08-04T22:30:33.319Z,25.30
2022-08-04T22:33:23.200Z,25.30
2022-08-04T22:36:10.114Z,25.30
2022-08-04T22:39:04.277Z,25.20
2022-08-04T22:42:03.622Z,25.20
2022-08-04T22:44:50.818Z,25.10
2022-08-04T22:47:38.653Z,25.10
2022-08-04T22:50:27.726Z,25.20
2022-08-04T22:53:17.758Z,25.10
2022-08-04T22:56:10.818Z,25.10
2022-08-04T22:58:57.416Z,25.00
2022-08-04T23:02:00.031Z,24.90
2022-08-04T23:04:52.395Z,24.70
2022-08-04T23:07:49.075Z,24.50
2022-08-04T23:10:36.178Z,24.30
2022-08-04T23:13:22.459Z,24.30
2022-08-04T23:16:09.968Z,24.40
2022-08-04T23:18:56.943Z,24.40
2022-08-04T23:21:47.674Z,24.30
2022-08-04T23:24:47.825Z,24.40
2022-08-04T23:27:40.426Z,24.20
2022-08-04T23:30:30.563Z,24.10
2022-08-04T23:33:16.680Z,24.10
2022-08-04T23:36:02.845Z,24.00
2022-08-04T23:38:48.990Z,24.00
2022-08-04T23:41:53.659Z,23.80
2022-08-04T23:44:41.665Z,23.90
2022-08-04T23:48:15.468Z,23.70
2022-08-04T23:50:33.633Z,23.70
2022-08-04T23:53:22.509Z,23.80
2022-08-04T23:56:11.128Z,23.70
2022-08-04T23:59:06.129Z,23.70
